• Join FlightAware (Why Join?)
  • Login
  • US Flag 
08:03PM EDT


 

Airport Tracker/Info


-or-


 

Live Flight TrackerFlight Track Log ✈ EMD21 ✈ 06-Jun-2013 ✈ KDAL - KMLC

Flight Track Log - Related Links

Times and Time Zones

All times are in EDT time to prevent confusion due to time zone crossing. See the EMD21 flight status page for this flight to view local times or setup timezone preferences in your user account.

Time Position Orientation Groundspeed Altitude Reporting Facility
EDT Latitude Longitude Course Direction KTS MPH feet Rate Location/Type
05:24PM 32.8667 -96.8500 320° Northwest 130 150 1,100  Level Dallas / Fort Worth TRACON
05:25PM 32.8833 -96.8667 320° Northwest 131 151 1,700 1,020 Climbing Dallas / Fort Worth TRACON
05:26PM 32.9167 -96.8833 337° Northwest 161 185 2,600 600 Climbing Dallas / Fort Worth TRACON
05:27PM 32.9667 -96.9000 344° North 177 204 3,000 180 Climbing Dallas / Fort Worth TRACON
05:28PM 33.0167 -96.9000 360° North 202 232 3,000 240 Level Dallas / Fort Worth TRACON
05:30PM 33.1433 -96.8775 North 193 222 4,000 600 Climbing Fort Worth Center
05:31PM 33.1850 -96.8697 North 166 191 5,200 960 Climbing Fort Worth Center
05:32PM 33.2331 -96.8597 10° North 165 190 6,000 420 Climbing Fort Worth Center
05:33PM 33.2789 -96.8469 13° North 176 203 6,100 300 Climbing Fort Worth Center
05:34PM 33.3392 -96.8317 12° North 196 226 6,600 600 Climbing Fort Worth Center
05:35PM 33.3808 -96.8164 17° North 187 215 7,400 660 Climbing Fort Worth Center
05:36PM 33.4289 -96.7739 36° Northeast 183 211 8,000 600 Climbing Fort Worth Center
05:37PM 33.4661 -96.7486 30° Northeast 183 211 8,700 660 Climbing Fort Worth Center
05:38PM 33.5139 -96.7083 35° Northeast 188 216 9,400 600 Climbing Fort Worth Center
05:39PM 33.5556 -96.6831 27° Northeast 188 216 10,000 600 Climbing Fort Worth Center
05:40PM 33.6075 -96.6478 29° Northeast 188 216 10,600 480 Climbing Fort Worth Center
05:41PM 33.6511 -96.6175 30° Northeast 188 216 11,000 180 Climbing Fort Worth Center
05:42PM 33.7011 -96.5819 31° Northeast 199 229 11,000  Level Fort Worth Center
05:43PM 33.7572 -96.5342 35° Northeast 215 247 11,000  Level Fort Worth Center
05:44PM 33.8069 -96.5086 23° Northeast 220 253 11,000  Level Fort Worth Center
05:45PM 33.8631 -96.4631 34° Northeast 220 253 11,000  Level Fort Worth Center
05:46PM 33.9192 -96.4272 28° Northeast 220 253 11,000  Level Fort Worth Center
05:47PM 33.9731 -96.3942 27° Northeast 220 253 11,000  Level Fort Worth Center
05:48PM 34.0228 -96.3508 36° Northeast 220 253 11,000  Level Fort Worth Center
05:49PM 34.0769 -96.3253 21° North 215 247 11,000  Level Fort Worth Center
05:50PM 34.1267 -96.2869 33° Northeast 210 242 11,000  Level Fort Worth Center
05:51PM 34.1806 -96.2511 29° Northeast 210 242 11,000  Level Fort Worth Center
05:52PM 34.2281 -96.2078 37° Northeast 210 242 11,000 -300 Level Fort Worth Center
05:53PM 34.2650 -96.1469 54° Northeast 210 242 10,500 -840 Descending Fort Worth Center
05:54PM 34.3189 -96.0958 38° Northeast 224 258 9,400 -960 Descending Fort Worth Center
05:55PM 34.3808 -96.0522 30° Northeast 239 275 8,600 -660 Descending Fort Worth Center
05:56PM 34.4283 -95.9961 44° Northeast 244 281 8,100 -900 Descending Fort Worth Center
05:57PM 34.4736 -95.9422 44° Northeast 231 266 6,900 -1,080 Descending Fort Worth Center
05:58PM 34.5253 -95.9011 33° Northeast 231 266 6,000 -900 Descending Fort Worth Center
05:59PM 34.5811 -95.8750 21° North 218 251 5,100 -1,020 Descending Fort Worth Center
06:00PM 34.6419 -95.8839 353° North 201 231 4,000 -1,140 Descending Fort Worth Center